Time;durP1;ratioP1;P1;durP2;ratioP2;P2;SDS_P1;SDS_P2;PMS_P1;PMS_P2;Temp;Humidity;BMP_temperature;BMP_pressure;BME280_temperature;BME280_humidity;BME280_pressure;Samples;Min_cycle;Max_cycle;Signal;HPM_P1;HPM_P2
2023/12/25 00:00:35;;;;;;;34.93;16.17;;;;;;;2.87;57.85;99475.05;125194;1099;104235;-78
2023/12/25 00:03:27;;;;;;;32.03;15.17;;;;;;;2.80;57.78;99475.55;124739;1099;102437;-78
2023/12/25 00:05:58;;;;;;;34.27;15.50;;;;;;;2.75;57.23;99476.14;125276;1098;104214;-78
2023/12/25 00:08:29;;;;;;;35.47;16.03;;;;;;;2.69;57.03;99476.72;125237;1099;102008;-78
2023/12/25 00:11:00;;;;;;;34.63;16.57;;;;;;;2.66;57.25;99484.33;125184;1099;104181;-79
2023/12/25 00:13:32;;;;;;;31.97;14.70;;;;;;;2.61;57.15;99478.03;125283;1099;104290;-78
2023/12/25 00:16:03;;;;;;;35.50;16.35;;;;;;;2.56;57.35;99487.28;125201;1099;104220;-78
2023/12/25 00:18:34;;;;;;;35.10;16.30;;;;;;;2.54;57.53;99488.88;125199;1099;104191;-77
2023/12/25 00:21:06;;;;;;;33.80;16.50;;;;;;;2.50;57.38;99491.31;125204;1099;104268;-78
2023/12/25 00:23:37;;;;;;;34.20;16.90;;;;;;;2.49;57.16;99492.15;125128;1099;104415;-78
2023/12/25 00:26:09;;;;;;;33.40;16.80;;;;;;;2.49;57.68;99488.64;125147;1099;104172;-78
2023/12/25 00:28:41;;;;;;;33.90;15.63;;;;;;;2.48;58.02;99480.00;125170;1098;104169;-78
2023/12/25 00:31:13;;;;;;;37.77;17.60;;;;;;;2.49;57.79;99474.02;125117;1099;104201;-78
2023/12/25 00:33:44;;;;;;;33.97;16.73;;;;;;;2.51;57.94;99472.38;124710;1099;104666;-78
2023/12/25 00:36:15;;;;;;;34.47;16.27;;;;;;;2.55;57.67;99469.95;125161;1099;101913;-78
2023/12/25 00:38:47;;;;;;;38.30;16.47;;;;;;;2.57;57.85;99473.50;125271;1099;102055;-78
2023/12/25 00:41:18;;;;;;;33.17;15.63;;;;;;;2.59;57.98;99470.19;125107;1099;102087;-78
2023/12/25 00:43:49;;;;;;;33.53;15.10;;;;;;;2.62;58.69;99469.47;125210;1099;104176;-78
2023/12/25 00:46:21;;;;;;;33.37;15.83;;;;;;;2.66;57.85;99476.56;125173;1099;104082;-78
2023/12/25 00:48:53;;;;;;;34.20;14.50;;;;;;;2.68;59.30;99475.84;124788;1099;104267;-79
2023/12/25 00:51:25;;;;;;;29.53;14.60;;;;;;;2.65;58.67;99483.45;125109;1099;104217;-79
2023/12/25 00:53:56;;;;;;;29.55;15.40;;;;;;;2.65;59.08;99479.95;124728;1099;104162;-78
2023/12/25 00:56:27;;;;;;;29.57;14.60;;;;;;;2.62;58.52;99469.47;125324;1099;101955;-78
2023/12/25 00:58:59;;;;;;;29.70;14.70;;;;;;;2.60;58.12;99465.89;125120;1099;104371;-78
2023/12/25 01:01:30;;;;;;;32.00;15.30;;;;;;;2.59;58.99;99466.72;125192;1099;102112;-78
2023/12/25 01:04:02;;;;;;;29.83;14.50;;;;;;;2.56;59.10;99462.27;124690;1099;101997;-78
2023/12/25 01:06:33;;;;;;;33.53;14.97;;;;;;;2.57;58.83;99460.55;125228;1098;102609;-78
2023/12/25 01:09:04;;;;;;;33.77;15.83;;;;;;;2.58;58.88;99454.57;125298;1099;104221;-78
2023/12/25 01:11:42;;;;;;;32.80;15.10;;;;;;;2.57;59.03;99448.52;125100;1099;104118;-78
2023/12/25 01:14:13;;;;;;;33.37;15.67;;;;;;;2.61;59.13;99445.24;125243;1099;101801;-78
2023/12/25 01:16:44;;;;;;;34.97;15.83;;;;;;;2.64;58.62;99442.81;125221;1099;101818;-78
2023/12/25 01:19:16;;;;;;;36.10;15.97;;;;;;;2.68;58.78;99436.98;125188;1099;104193;-78
2023/12/25 01:21:47;;;;;;;33.93;14.70;;;;;;;2.70;58.36;99424.98;125130;1099;102376;-78
2023/12/25 01:24:18;;;;;;;32.23;15.47;;;;;;;2.73;59.09;99429.44;125132;1099;102160;-77
2023/12/25 01:26:50;;;;;;;34.93;14.80;;;;;;;2.77;59.32;99425.29;125200;1099;104194;-78
2023/12/25 01:29:21;;;;;;;30.83;14.73;;;;;;;2.78;59.44;99417.59;125250;1099;104229;-78
2023/12/25 01:31:52;;;;;;;31.77;14.67;;;;;;;2.82;59.01;99416.94;124777;1099;104316;-78
2023/12/25 01:34:24;;;;;;;28.53;13.87;;;;;;;2.85;59.32;99416.18;124760;1099;104198;-77
2023/12/25 01:36:55;;;;;;;24.87;11.30;;;;;;;2.88;59.68;99406.87;125154;1099;104169;-78
2023/12/25 01:39:26;;;;;;;27.07;11.50;;;;;;;2.92;59.76;99397.54;124778;1099;104284;-78
2023/12/25 01:41:57;;;;;;;33.33;14.30;;;;;;;2.95;60.12;99396.81;125265;1099;102083;-78
2023/12/25 01:44:29;;;;;;;32.30;13.63;;;;;;;2.94;59.30;99400.20;125190;1099;103524;-78
2023/12/25 01:47:00;;;;;;;26.57;13.20;;;;;;;2.94;60.13;99400.20;125288;1099;104201;-78
2023/12/25 01:49:32;;;;;;;28.00;13.67;;;;;;;2.93;59.92;99388.05;125117;1099;107109;-78
2023/12/25 01:52:04;;;;;;;27.73;13.10;;;;;;;2.95;60.37;99382.14;125279;1099;101941;-78
2023/12/25 01:54:37;;;;;;;27.33;13.20;;;;;;;2.95;60.30;99376.08;124712;1099;103262;-78
2023/12/25 01:57:09;;;;;;;26.67;12.57;;;;;;;2.96;59.64;99375.24;125276;1098;104657;-77
2023/12/25 01:59:41;;;;;;;27.07;12.60;;;;;;;2.96;59.77;99373.56;124796;1099;104210;-78
2023/12/25 02:02:13;;;;;;;23.90;11.37;;;;;;;2.95;60.49;99369.19;125377;1099;104003;-77
2023/12/25 02:04:44;;;;;;;27.33;11.93;;;;;;;2.96;60.92;99377.84;124796;1099;104213;-77
2023/12/25 02:07:18;;;;;;;24.27;11.27;;;;;;;2.97;60.51;99366.66;125385;1099;104251;-77
2023/12/25 02:09:51;;;;;;;25.80;11.07;;;;;;;2.96;60.32;99364.88;125341;1098;101804;-77
2023/12/25 02:12:22;;;;;;;28.17;12.18;;;;;;;2.95;60.89;99363.13;125148;1099;102183;-78
2023/12/25 02:14:54;;;;;;;24.37;11.17;;;;;;;2.96;60.90;99357.10;125253;1099;104163;-78
2023/12/25 02:17:26;;;;;;;26.73;11.40;;;;;;;2.98;60.97;99346.01;125194;1099;101879;-77
2023/12/25 02:19:58;;;;;;;26.80;12.20;;;;;;;2.97;60.87;99353.70;124740;1099;102065;-78
2023/12/25 02:22:30;;;;;;;23.10;10.40;;;;;;;2.98;60.79;99345.13;125100;1099;104178;-78
2023/12/25 02:25:08;;;;;;;22.70;10.50;;;;;;;3.03;60.92;99338.45;125350;1099;104169;-77
2023/12/25 02:27:40;;;;;;;22.57;9.73;;;;;;;3.06;60.51;99323.92;125230;1099;102015;-78
2023/12/25 02:30:11;;;;;;;23.27;9.73;;;;;;;3.09;60.90;99312.82;125429;1099;104195;-78
2023/12/25 02:32:43;;;;;;;20.43;8.87;;;;;;;3.10;61.61;99305.92;125336;1099;104249;-78
2023/12/25 02:35:14;;;;;;;21.20;9.37;;;;;;;3.11;61.44;99303.40;125357;1099;101993;-78
2023/12/25 02:37:45;;;;;;;22.37;9.67;;;;;;;3.12;60.79;99317.27;125385;1099;104382;-77
2023/12/25 02:40:17;;;;;;;22.67;10.27;;;;;;;3.11;61.51;99315.48;125317;1099;102230;-78
2023/12/25 02:42:48;;;;;;;20.03;8.83;;;;;;;3.09;61.35;99304.16;125310;1099;104214;-78
2023/12/25 02:45:19;;;;;;;22.13;9.33;;;;;;;3.12;61.55;99306.91;125465;1099;101875;-78
2023/12/25 02:47:50;;;;;;;21.60;9.27;;;;;;;3.16;61.37;99313.98;125379;1099;104301;-78
2023/12/25 02:50:22;;;;;;;20.17;9.17;;;;;;;3.21;61.24;99302.11;124864;1099;104290;-78
2023/12/25 02:52:53;;;;;;;22.50;9.33;;;;;;;3.20;62.81;99295.17;124642;1098;102017;-78
2023/12/25 02:55:25;;;;;;;20.17;9.23;;;;;;;3.22;62.12;99298.70;125431;1099;104245;-79
2023/12/25 02:57:56;;;;;;;21.73;9.63;;;;;;;3.22;62.00;99294.40;124735;1099;104249;-78
2023/12/25 03:00:27;;;;;;;20.27;9.03;;;;;;;3.24;62.75;99286.69;125393;1099;104236;-78
2023/12/25 03:02:58;;;;;;;21.47;9.10;;;;;;;3.25;62.96;99285.88;124766;1099;101993;-78
2023/12/25 03:05:30;;;;;;;20.13;9.10;;;;;;;3.27;62.89;99279.05;124815;1099;104227;-78
2023/12/25 03:08:01;;;;;;;20.33;8.70;;;;;;;3.30;62.18;99275.72;124771;1099;102187;-78
2023/12/25 03:10:33;;;;;;;21.40;8.90;;;;;;;3.34;62.82;99273.34;124754;1099;104185;-78
2023/12/25 03:13:05;;;;;;;19.37;8.77;;;;;;;3.39;62.88;99282.20;125419;1099;101836;-77
2023/12/25 03:15:37;;;;;;;23.33;9.20;;;;;;;3.43;62.93;99275.47;124888;1099;102040;-78
2023/12/25 03:18:08;;;;;;;18.40;8.60;;;;;;;3.45;62.48;99263.44;125375;1099;104166;-78
2023/12/25 03:20:40;;;;;;;19.63;8.73;;;;;;;3.46;63.78;99262.63;125319;1099;104245;-78
2023/12/25 03:23:11;;;;;;;18.60;8.27;;;;;;;3.42;63.78;99260.71;125368;1098;104208;-78
2023/12/25 03:25:42;;;;;;;18.47;8.10;;;;;;;3.42;63.23;99264.19;125381;1099;101826;-78
2023/12/25 03:28:13;;;;;;;17.40;7.87;;;;;;;3.42;63.08;99260.71;125328;1099;104455;-78
2023/12/25 03:30:45;;;;;;;18.50;7.83;;;;;;;3.42;64.04;99258.99;125215;1099;104278;-79
2023/12/25 03:33:16;;;;;;;20.07;7.50;;;;;;;3.46;63.67;99256.54;125370;1099;104163;-79
2023/12/25 03:35:47;;;;;;;18.37;7.80;;;;;;;3.50;63.77;99254.15;125382;1099;104255;-78
2023/12/25 03:38:19;;;;;;;18.70;7.70;;;;;;;3.55;63.87;99257.85;125275;1099;101836;-77
2023/12/25 03:40:51;;;;;;;17.40;6.87;;;;;;;3.64;63.98;99248.69;125207;1098;104242;-78
2023/12/25 03:43:23;;;;;;;16.70;6.70;;;;;;;3.70;63.77;99243.77;125441;1099;104165;-77
2023/12/25 03:45:54;;;;;;;16.60;7.37;;;;;;;3.75;64.16;99248.30;125270;1098;104114;-78
2023/12/25 03:48:25;;;;;;;13.07;6.23;;;;;;;3.82;64.16;99240.78;125327;1099;104197;-78
2023/12/25 03:50:57;;;;;;;15.47;6.63;;;;;;;3.88;64.72;99244.55;125245;1099;104179;-78
2023/12/25 03:53:28;;;;;;;14.93;6.13;;;;;;;3.92;64.06;99243.83;125394;1099;101887;-78
2023/12/25 03:56:04;;;;;;;17.43;6.67;;;;;;;3.95;64.64;99248.28;124735;1099;101928;-78
2023/12/25 03:58:35;;;;;;;18.90;7.60;;;;;;;3.96;64.66;99252.66;124715;1099;104175;-78
2023/12/25 04:01:07;;;;;;;19.90;8.17;;;;;;;3.93;65.31;99257.72;125202;1098;104366;-78
2023/12/25 04:03:38;;;;;;;19.47;8.47;;;;;;;3.91;64.56;99252.46;125237;1099;102489;-78
2023/12/25 04:06:10;;;;;;;16.90;7.13;;;;;;;3.93;65.15;99239.55;124835;1099;102015;-78
2023/12/25 04:08:41;;;;;;;17.43;8.13;;;;;;;3.99;64.78;99231.11;125264;1099;101833;-78
2023/12/25 04:11:20;;;;;;;17.93;8.03;;;;;;;4.04;64.98;99222.70;124872;1099;101866;-78
2023/12/25 04:13:53;;;;;;;19.00;8.10;;;;;;;4.09;64.71;99230.68;125499;1099;104102;-78
2023/12/25 04:16:26;;;;;;;18.53;8.10;;;;;;;4.06;65.27;99231.43;124814;1099;101942;-78
2023/12/25 04:18:58;;;;;;;18.57;7.80;;;;;;;4.07;65.18;99241.00;125351;1098;102217;-78
2023/12/25 04:21:31;;;;;;;18.40;7.77;;;;;;;4.10;65.05;99233.34;124937;1099;104104;-78
2023/12/25 04:24:03;;;;;;;19.17;8.53;;;;;;;4.14;65.38;99210.97;125422;1099;104185;-78
2023/12/25 04:26:34;;;;;;;17.20;7.20;;;;;;;4.20;65.12;99215.55;125419;1099;101829;-79
2023/12/25 04:29:06;;;;;;;18.60;8.03;;;;;;;4.22;64.63;99226.87;125430;1099;101830;-78
2023/12/25 04:31:37;;;;;;;20.03;7.77;;;;;;;4.25;65.50;99217.48;125376;1099;104208;-78
2023/12/25 04:34:08;;;;;;;20.65;7.80;;;;;;;4.27;65.05;99207.16;125072;1099;102255;-78
2023/12/25 04:36:40;;;;;;;19.50;7.97;;;;;;;4.24;65.59;99207.94;124786;1099;104155;-78
2023/12/25 04:39:12;;;;;;;17.43;7.80;;;;;;;4.26;65.99;99208.00;124842;1099;101920;-78
2023/12/25 04:41:43;;;;;;;13.90;6.70;;;;;;;4.30;65.12;99207.28;125289;1099;102613;-78
2023/12/25 04:44:14;;;;;;;15.80;7.10;;;;;;;4.33;65.10;99194.41;124884;1099;102433;-78
2023/12/25 04:46:45;;;;;;;14.63;6.23;;;;;;;4.41;65.69;99206.02;124852;1099;102005;-78
2023/12/25 04:49:17;;;;;;;16.63;7.00;;;;;;;4.49;65.26;99199.40;125334;1099;104114;-78
2023/12/25 04:51:48;;;;;;;16.90;7.10;;;;;;;4.55;65.91;99203.05;124994;1099;104264;-78
2023/12/25 04:54:20;;;;;;;17.10;7.20;;;;;;;4.57;65.69;99204.89;125184;1099;101846;-78
2023/12/25 04:56:53;;;;;;;16.97;7.37;;;;;;;4.61;65.84;99200.69;124869;1099;104333;-78
2023/12/25 04:59:24;;;;;;;11.48;5.40;;;;;;;4.62;65.60;99202.48;125419;1099;104746;-78
2023/12/25 05:01:58;;;;;;;13.60;6.07;;;;;;;4.61;66.53;99191.20;125291;1099;104156;-79
2023/12/25 05:04:30;;;;;;;13.07;6.00;;;;;;;4.60;66.44;99189.42;125419;1099;102189;-79
2023/12/25 05:07:03;;;;;;;12.33;5.30;;;;;;;4.61;65.92;99186.02;124884;1099;101893;-79
2023/12/25 05:09:34;;;;;;;13.10;6.00;;;;;;;4.62;66.41;99185.16;125370;1099;102038;-83
2023/12/25 05:12:06;;;;;;;13.90;5.57;;;;;;;4.63;66.85;99179.15;125361;1099;101929;-78
2023/12/25 05:14:37;;;;;;;12.27;5.27;;;;;;;4.65;66.97;99181.81;125339;1099;102182;-78
2023/12/25 05:17:09;;;;;;;11.70;5.23;;;;;;;4.67;66.13;99178.45;125360;1099;101843;-78
2023/12/25 05:19:42;;;;;;;9.80;4.63;;;;;;;4.72;66.51;99178.63;125477;1099;104182;-77
2023/12/25 05:22:14;;;;;;;7.97;4.12;;;;;;;4.81;66.71;99172.87;125425;1099;102349;-78
2023/12/25 05:24:45;;;;;;;5.87;3.53;;;;;;;4.92;66.79;99183.67;125380;1099;104262;-78
2023/12/25 05:27:17;;;;;;;7.83;3.87;;;;;;;4.99;66.87;99178.75;124982;1099;104278;-78
2023/12/25 05:29:48;;;;;;;7.37;3.70;;;;;;;5.07;67.26;99185.95;125206;1099;104242;-78
2023/12/25 05:32:19;;;;;;;8.50;3.70;;;;;;;5.14;67.04;99193.13;125379;1099;101919;-78
2023/12/25 05:34:50;;;;;;;9.10;3.70;;;;;;;5.22;67.15;99186.52;124897;1099;101997;-77
2023/12/25 05:37:22;;;;;;;6.30;3.30;;;;;;;5.29;67.30;99180.69;125110;1099;104197;-78
2023/12/25 05:39:53;;;;;;;7.53;3.43;;;;;;;5.37;67.43;99179.23;125433;1098;104294;-79
2023/12/25 05:42:24;;;;;;;8.13;3.80;;;;;;;5.47;67.35;99169.14;125409;1099;104220;-78
2023/12/25 05:44:56;;;;;;;6.40;3.50;;;;;;;5.54;67.18;99173.74;125293;1099;104192;-78
2023/12/25 05:47:27;;;;;;;7.20;3.20;;;;;;;5.59;67.38;99169.57;125420;1099;101994;-78
2023/12/25 05:49:58;;;;;;;6.57;3.57;;;;;;;5.64;67.72;99173.23;124917;1099;101980;-78
2023/12/25 05:52:30;;;;;;;6.40;3.53;;;;;;;5.68;68.00;99180.30;125235;1099;102726;-78
2023/12/25 05:55:01;;;;;;;8.27;3.50;;;;;;;5.72;67.45;99183.91;125438;1098;104255;-78
2023/12/25 05:57:32;;;;;;;8.30;3.60;;;;;;;5.76;67.54;99176.26;125525;1099;101903;-78
2023/12/25 06:00:04;;;;;;;6.87;3.57;;;;;;;5.76;67.67;99184.06;125439;1099;104178;-79
2023/12/25 06:02:43;;;;;;;9.40;4.23;;;;;;;5.78;67.53;99183.21;125006;1099;102239;-78
2023/12/25 06:05:15;;;;;;;13.87;5.63;;;;;;;5.78;67.44;99163.30;125527;1099;102189;-78
2023/12/25 06:07:46;;;;;;;11.90;5.23;;;;;;;5.81;67.52;99160.77;125572;1099;104203;-78
2023/12/25 06:10:18;;;;;;;10.37;5.17;;;;;;;5.83;67.65;99166.02;125529;1099;104192;-78
2023/12/25 06:12:49;;;;;;;10.97;5.03;;;;;;;5.82;67.71;99154.73;125449;1099;104189;-78
2023/12/25 06:15:20;;;;;;;13.13;5.53;;;;;;;5.84;67.67;99159.98;125015;1099;102054;-78
2023/12/25 06:17:52;;;;;;;16.47;6.37;;;;;;;5.83;68.23;99155.61;125434;1099;101983;-78
2023/12/25 06:20:24;;;;;;;13.63;5.70;;;;;;;5.81;68.01;99165.09;125419;1099;102528;-79
2023/12/25 06:22:56;;;;;;;16.90;6.50;;;;;;;5.79;67.84;99165.05;125064;1099;104188;-80
2023/12/25 06:25:27;;;;;;;23.17;8.97;;;;;;;5.76;68.21;99165.84;125380;1099;101978;-79
2023/12/25 06:27:58;;;;;;;23.70;9.00;;;;;;;5.74;68.14;99185.70;125312;1099;104198;-79
2023/12/25 06:30:30;;;;;;;26.07;9.80;;;;;;;5.69;68.81;99197.69;125389;1099;102329;-79
2023/12/25 06:33:01;;;;;;;21.63;8.73;;;;;;;5.69;68.13;99200.30;125386;1099;104199;-78
2023/12/25 06:35:32;;;;;;;21.53;8.67;;;;;;;5.73;67.89;99196.98;125508;1099;104233;-79
2023/12/25 06:38:04;;;;;;;20.23;8.30;;;;;;;5.80;68.07;99191.95;125300;1099;104373;-78
2023/12/25 06:40:35;;;;;;;20.93;7.73;;;;;;;5.88;68.24;99193.11;125478;1099;104373;-79
2023/12/25 06:43:06;;;;;;;16.50;7.23;;;;;;;5.96;68.62;99193.37;125514;1099;104060;-78
2023/12/25 06:45:37;;;;;;;14.53;5.20;;;;;;;6.05;68.43;99202.39;125541;1099;104221;-79
2023/12/25 06:48:10;;;;;;;10.13;4.57;;;;;;;6.16;69.01;99205.34;125609;1099;101836;-78
2023/12/25 06:50:41;;;;;;;14.30;5.40;;;;;;;6.26;68.32;99214.34;125626;1099;104316;-79
2023/12/25 06:53:12;;;;;;;11.77;4.50;;;;;;;6.36;68.85;99223.33;125414;1099;104179;-79
2023/12/25 06:55:43;;;;;;;7.33;3.50;;;;;;;6.44;68.78;99222.75;125495;1099;102470;-78
2023/12/25 06:58:15;;;;;;;9.40;4.53;;;;;;;6.55;69.05;99209.18;125580;1099;104194;-78
2023/12/25 07:00:46;;;;;;;11.13;4.53;;;;;;;6.63;69.06;99215.50;125523;1099;101858;-76
2023/12/25 07:03:18;;;;;;;7.10;3.70;;;;;;;6.72;68.75;99225.34;125479;1099;102431;-75
2023/12/25 07:05:50;;;;;;;6.90;3.53;;;;;;;6.80;68.88;99210.81;125440;1099;107503;-76
2023/12/25 07:08:21;;;;;;;7.17;3.40;;;;;;;6.87;69.42;99222.30;124990;1099;104204;-76
2023/12/25 07:10:52;;;;;;;11.53;3.87;;;;;;;6.91;68.85;99216.34;125362;1099;102528;-76
2023/12/25 07:13:23;;;;;;;7.50;3.50;;;;;;;6.94;68.93;99224.27;125643;1098;104711;-76
2023/12/25 07:15:55;;;;;;;8.10;3.50;;;;;;;7.00;69.36;99229.66;125447;1099;102087;-76
2023/12/25 07:18:26;;;;;;;7.05;3.40;;;;;;;7.05;69.58;99227.19;125444;1099;101880;-76
2023/12/25 07:20:57;;;;;;;8.30;3.50;;;;;;;7.13;69.11;99236.98;125492;1099;104211;-76
2023/12/25 07:23:28;;;;;;;5.30;2.80;;;;;;;7.22;69.52;99238.12;125473;1099;102087;-78
2023/12/25 07:26:00;;;;;;;5.47;2.77;;;;;;;7.33;69.35;99247.13;125470;1099;101900;-77
2023/12/25 07:28:31;;;;;;;4.80;2.73;;;;;;;7.47;69.86;99245.78;125432;1099;101912;-77
2023/12/25 07:31:02;;;;;;;4.30;2.60;;;;;;;7.59;69.22;99260.92;125620;1099;104160;-76
2023/12/25 07:33:35;;;;;;;5.97;2.87;;;;;;;7.69;69.23;99262.05;125489;1099;104197;-77
2023/12/25 07:36:07;;;;;;;5.20;2.67;;;;;;;7.79;69.28;99255.34;124923;1099;104168;-76
2023/12/25 07:38:41;;;;;;;6.03;3.00;;;;;;;7.87;69.58;99274.73;125593;1099;104163;-77
2023/12/25 07:41:13;;;;;;;7.20;2.85;;;;;;;7.95;69.48;99282.73;125515;1099;102096;-77
2023/12/25 07:43:44;;;;;;;5.73;2.90;;;;;;;8.02;69.49;99292.52;125494;1099;104200;-76
2023/12/25 07:46:15;;;;;;;6.67;3.20;;;;;;;8.06;69.43;99276.09;125612;1099;102109;-77
2023/12/25 07:48:47;;;;;;;6.63;3.20;;;;;;;8.12;69.59;99283.19;125554;1099;104354;-76
2023/12/25 07:51:18;;;;;;;8.07;3.50;;;;;;;8.16;69.52;99285.05;124899;1100;104223;-76
2023/12/25 07:53:49;;;;;;;7.07;3.60;;;;;;;8.27;69.12;99299.27;125585;1099;104236;-77
2023/12/25 07:56:21;;;;;;;9.70;4.20;;;;;;;8.40;69.76;99293.52;124970;1099;102028;-76
2023/12/25 07:58:52;;;;;;;10.17;4.13;;;;;;;8.55;69.22;99293.02;125582;1099;101900;-78
2023/12/25 08:01:24;;;;;;;10.30;4.60;;;;;;;8.69;69.32;99292.48;124886;1099;104623;-76
2023/12/25 08:03:55;;;;;;;9.67;4.27;;;;;;;8.77;68.97;99294.45;125712;1099;102023;-76
2023/12/25 08:06:26;;;;;;;9.87;4.27;;;;;;;8.88;69.73;99296.41;124925;1099;102513;-76
2023/12/25 08:08:57;;;;;;;9.93;4.80;;;;;;;8.92;69.01;99296.52;125467;1099;104108;-77
2023/12/25 08:11:29;;;;;;;12.97;4.37;;;;;;;8.93;69.19;99302.66;125145;1102;104195;-76
2023/12/25 08:14:00;;;;;;;8.83;3.87;;;;;;;8.96;69.77;99298.38;124974;1099;104235;-76
2023/12/25 08:16:31;;;;;;;8.15;3.55;;;;;;;8.99;68.99;99292.30;125497;1099;104201;-77
2023/12/25 08:19:02;;;;;;;8.70;3.70;;;;;;;9.00;69.20;99294.95;125673;1099;102176;-77
2023/12/25 08:21:35;;;;;;;7.07;3.37;;;;;;;9.04;69.41;99289.78;125588;1099;104176;-77
2023/12/25 08:24:07;;;;;;;6.47;3.43;;;;;;;9.07;69.27;99301.23;125368;1099;102405;-77
2023/12/25 08:26:38;;;;;;;5.63;3.00;;;;;;;9.12;68.67;99307.44;125565;1099;104251;-77
2023/12/25 08:29:09;;;;;;;6.63;3.43;;;;;;;9.14;68.69;99302.23;125637;1099;101820;-76
2023/12/25 08:31:42;;;;;;;5.87;3.20;;;;;;;9.15;68.49;99317.11;125062;1100;101956;-77
2023/12/25 08:34:13;;;;;;;6.37;3.23;;;;;;;9.18;69.33;99309.33;125013;1099;104438;-77
2023/12/25 08:36:44;;;;;;;7.67;3.43;;;;;;;9.27;68.65;99312.14;125495;1099;101913;-76
2023/12/25 08:39:16;;;;;;;5.20;3.30;;;;;;;9.40;68.92;99315.03;125625;1099;104290;-76
2023/12/25 08:41:48;;;;;;;6.20;3.67;;;;;;;9.45;68.53;99303.78;125203;1099;102029;-77
2023/12/25 08:44:19;;;;;;;7.17;3.83;;;;;;;9.50;68.75;99311.73;125618;1099;101935;-77
2023/12/25 08:46:50;;;;;;;6.00;3.20;;;;;;;9.55;68.72;99310.09;125797;1099;102022;-76
2023/12/25 08:49:22;;;;;;;7.80;3.40;;;;;;;9.57;68.43;99307.50;125066;1099;102333;-77
2023/12/25 08:51:53;;;;;;;7.17;3.57;;;;;;;9.58;68.08;99293.56;125285;1099;101778;-77
2023/12/25 08:54:24;;;;;;;7.13;3.83;;;;;;;9.58;68.46;99286.58;125805;1099;102087;-77
2023/12/25 08:56:58;;;;;;;6.90;3.70;;;;;;;9.61;68.52;99281.41;125775;1099;102819;-76
2023/12/25 08:59:29;;;;;;;8.00;3.80;;;;;;;9.64;67.92;99277.97;125468;1099;103619;-77
2023/12/25 09:02:00;;;;;;;11.93;4.53;;;;;;;9.67;68.21;99278.91;125665;1099;104079;-77
2023/12/25 09:04:32;;;;;;;11.60;4.00;;;;;;;9.73;68.25;99261.56;125586;1098;104174;-76
2023/12/25 09:07:03;;;;;;;6.97;3.30;;;;;;;9.76;67.66;99251.15;124911;1099;101941;-76
2023/12/25 09:09:35;;;;;;;6.17;3.10;;;;;;;9.80;68.46;99242.47;125577;1099;102024;-77
2023/12/25 09:12:07;;;;;;;7.33;3.13;;;;;;;9.89;68.26;99240.92;125544;1099;104155;-76
2023/12/25 09:14:39;;;;;;;5.97;3.27;;;;;;;9.99;67.94;99220.12;125462;1098;102105;-77
2023/12/25 09:17:10;;;;;;;4.57;2.47;;;;;;;10.05;67.44;99233.31;124924;1099;104232;-76
2023/12/25 09:19:42;;;;;;;7.90;2.80;;;;;;;10.13;67.57;99241.30;125405;1099;102371;-77
2023/12/25 09:22:13;;;;;;;7.00;2.53;;;;;;;10.22;67.99;99223.11;124710;1102;104207;-76
2023/12/25 09:24:45;;;;;;;6.43;2.80;;;;;;;10.31;67.59;99233.75;125493;1099;101952;-77
2023/12/25 09:27:16;;;;;;;9.97;2.80;;;;;;;10.38;67.44;99238.29;125537;1099;104179;-77
2023/12/25 09:29:47;;;;;;;6.83;2.80;;;;;;;10.49;67.64;99216.61;125492;1099;104162;-77
2023/12/25 09:32:19;;;;;;;4.37;2.80;;;;;;;10.57;67.68;99217.59;125428;1099;102306;-76
2023/12/25 09:34:50;;;;;;;9.23;2.73;;;;;;;10.63;67.61;99212.45;125464;1099;104185;-76
2023/12/25 09:37:21;;;;;;;5.87;2.77;;;;;;;10.69;67.25;99223.03;125361;1099;104329;-77
2023/12/25 09:39:52;;;;;;;3.37;2.53;;;;;;;10.76;67.58;99227.48;124849;1099;104376;-78
2023/12/25 09:42:24;;;;;;;5.07;2.80;;;;;;;10.82;67.03;99223.21;125401;1098;104176;-76
2023/12/25 09:44:56;;;;;;;5.43;2.40;;;;;;;10.87;67.05;99226.77;124993;1099;104366;-77
2023/12/25 09:47:28;;;;;;;4.53;2.40;;;;;;;10.95;67.33;99225.13;125106;1099;102533;-78
2023/12/25 09:50:00;;;;;;;5.43;2.77;;;;;;;11.05;67.12;99226.16;125182;1098;102035;-78
2023/12/25 09:52:31;;;;;;;9.10;3.50;;;;;;;11.19;66.62;99229.83;125324;1099;104220;-78
2023/12/25 09:55:03;;;;;;;6.13;2.90;;;;;;;11.29;66.67;99228.20;125326;1099;102032;-76
2023/12/25 09:57:36;;;;;;;6.27;2.70;;;;;;;11.32;66.65;99239.61;125514;1099;101756;-76
2023/12/25 10:00:10;;;;;;;8.53;2.77;;;;;;;11.35;66.62;99240.53;125597;1099;104729;-77
2023/12/25 10:02:45;;;;;;;6.00;2.65;;;;;;;11.37;66.00;99249.30;125386;1099;104238;-78
2023/12/25 10:05:18;;;;;;;5.83;2.47;;;;;;;11.36;66.27;99242.27;125454;1099;104179;-77
2023/12/25 10:07:50;;;;;;;3.87;2.40;;;;;;;11.35;66.07;99244.03;125685;1098;102080;-76
2023/12/25 10:10:27;;;;;;;6.13;2.40;;;;;;;11.33;66.00;99241.38;125605;1099;104710;-77
2023/12/25 10:12:59;;;;;;;5.55;2.40;;;;;;;11.35;66.11;99241.41;125560;1099;102318;-78
2023/12/25 10:15:30;;;;;;;5.63;2.80;;;;;;;11.39;65.90;99250.19;125563;1099;101916;-76
2023/12/25 10:18:05;;;;;;;3.53;2.27;;;;;;;11.40;65.69;99260.72;125294;1099;104194;-76
2023/12/25 10:20:37;;;;;;;5.03;3.00;;;;;;;11.43;65.93;99255.50;125498;1099;102269;-77
2023/12/25 10:23:13;;;;;;;6.43;2.97;;;;;;;11.47;65.70;99244.18;124806;1099;102313;-77
2023/12/25 10:25:45;;;;;;;6.67;2.50;;;;;;;11.54;65.71;99252.14;125366;1099;102129;-77
2023/12/25 10:28:16;;;;;;;6.10;3.00;;;;;;;11.61;65.23;99249.60;125279;1098;104470;-76
2023/12/25 10:30:58;;;;;;;4.63;2.60;;;;;;;11.69;65.88;99257.57;125661;1099;104166;-76
2023/12/25 10:33:29;;;;;;;5.20;2.40;;;;;;;11.74;65.15;99237.47;125277;1099;102749;-77
2023/12/25 10:36:06;;;;;;;6.57;2.77;;;;;;;11.77;65.40;99226.13;125588;1099;101926;-77
2023/12/25 10:38:40;;;;;;;4.70;2.50;;;;;;;11.76;64.86;99227.84;125255;1098;104262;-77
2023/12/25 10:41:22;;;;;;;6.83;2.85;;;;;;;11.72;65.09;99230.42;125677;1099;104261;-78
2023/12/25 10:43:56;;;;;;;6.70;2.50;;;;;;;11.68;64.86;99240.90;124960;1099;101917;-78
2023/12/25 10:46:29;;;;;;;5.53;2.40;;;;;;;11.64;64.53;99232.97;125436;1099;104175;-78
2023/12/25 10:49:03;;;;;;;8.70;2.73;;;;;;;11.64;64.74;99228.62;125507;1099;104191;-77
2023/12/25 10:51:35;;;;;;;5.17;2.33;;;;;;;11.64;64.53;99235.59;125456;1099;101944;-80
2023/12/25 10:54:09;;;;;;;4.20;2.40;;;;;;;11.65;64.53;99229.48;125508;1099;102217;-78
2023/12/25 10:56:43;;;;;;;5.80;2.52;;;;;;;11.67;64.34;99217.23;125368;1099;104197;-79
2023/12/25 10:59:21;;;;;;;6.03;2.80;;;;;;;11.69;64.52;99226.04;125177;1099;102091;-78
2023/12/25 11:01:54;;;;;;;5.10;2.50;;;;;;;11.71;64.31;99237.44;125500;1099;102374;-77
2023/12/25 11:04:26;;;;;;;2.62;2.12;;;;;;;11.71;64.27;99233.94;125045;1099;102247;-77
2023/12/25 11:07:00;;;;;;;4.93;2.50;;;;;;;11.70;64.25;99238.30;125326;1099;102087;-78
2023/12/25 11:09:29;;;;;;;;;;;;;;;11.71;64.09;99240.06;125619;1099;101960;-78
2023/12/25 11:12:02;;;;;;;4.53;2.40;;;;;;;11.75;64.59;99236.62;125473;1099;104233;-78
2023/12/25 11:14:34;;;;;;;5.63;2.50;;;;;;;11.77;64.39;99234.88;125573;1099;102076;-78
2023/12/25 11:17:06;;;;;;;4.07;2.43;;;;;;;11.80;64.06;99234.91;125469;1099;104246;-78
2023/12/25 11:19:38;;;;;;;5.60;2.50;;;;;;;11.84;64.14;99241.07;124954;1099;104156;-77
2023/12/25 11:22:29;;;;;;;5.30;3.03;;;;;;;11.84;64.10;99241.97;125380;1099;104241;-78
2023/12/25 11:25:03;;;;;;;4.10;2.70;;;;;;;11.84;63.55;99247.23;124820;1099;102515;-78
2023/12/25 11:27:34;;;;;;;;;;;;;;;11.81;63.68;99238.41;124928;1099;101979;-78
2023/12/25 11:30:09;;;;;;;6.23;2.83;;;;;;;11.76;63.78;99230.47;125453;1099;104218;-78
2023/12/25 11:32:45;;;;;;;4.40;2.50;;;;;;;11.72;64.01;99235.68;125315;1099;104210;-78
2023/12/25 11:35:25;;;;;;;3.27;2.20;;;;;;;11.65;63.50;99234.73;125385;1099;101920;-78
2023/12/25 11:38:27;;;;;;;6.17;2.73;;;;;;;11.61;63.99;99219.80;125081;1099;102233;-78